sensor_id;sensor_type;location;lat;lon;timestamp;P1;durP1;ratioP1;P2;durP2;ratioP2
13067;SDS011;6600;51.362;6.686;2023-07-13T00:00:40;1.03;;;0.70;;
13067;SDS011;6600;51.362;6.686;2023-07-13T00:03:06;0.30;;;0.30;;
13067;SDS011;6600;51.362;6.686;2023-07-13T00:05:31;0.40;;;0.40;;
13067;SDS011;6600;51.362;6.686;2023-07-13T00:07:57;0.40;;;0.40;;
13067;SDS011;6600;51.362;6.686;2023-07-13T00:10:22;0.70;;;0.50;;
13067;SDS011;6600;51.362;6.686;2023-07-13T00:12:47;1.13;;;0.60;;
13067;SDS011;6600;51.362;6.686;2023-07-13T00:15:15;0.87;;;0.70;;
13067;SDS011;6600;51.362;6.686;2023-07-13T00:17:47;2.60;;;1.07;;
13067;SDS011;6600;51.362;6.686;2023-07-13T00:20:12;1.13;;;0.73;;
13067;SDS011;6600;51.362;6.686;2023-07-13T00:22:38;0.57;;;0.57;;
13067;SDS011;6600;51.362;6.686;2023-07-13T00:25:03;0.67;;;0.67;;
13067;SDS011;6600;51.362;6.686;2023-07-13T00:27:29;1.53;;;0.60;;
13067;SDS011;6600;51.362;6.686;2023-07-13T00:29:57;0.90;;;0.60;;
13067;SDS011;6600;51.362;6.686;2023-07-13T00:32:24;0.77;;;0.50;;
13067;SDS011;6600;51.362;6.686;2023-07-13T00:34:50;3.10;;;0.60;;
13067;SDS011;6600;51.362;6.686;2023-07-13T00:37:16;1.57;;;1.17;;
13067;SDS011;6600;51.362;6.686;2023-07-13T00:39:42;1.50;;;1.00;;
13067;SDS011;6600;51.362;6.686;2023-07-13T00:42:07;1.83;;;0.80;;
13067;SDS011;6600;51.362;6.686;2023-07-13T00:44:32;0.83;;;0.67;;
13067;SDS011;6600;51.362;6.686;2023-07-13T00:46:58;2.70;;;0.83;;
13067;SDS011;6600;51.362;6.686;2023-07-13T00:49:24;1.37;;;0.50;;
13067;SDS011;6600;51.362;6.686;2023-07-13T00:51:59;0.57;;;0.40;;
13067;SDS011;6600;51.362;6.686;2023-07-13T00:54:33;1.80;;;0.77;;
13067;SDS011;6600;51.362;6.686;2023-07-13T00:57:09;0.60;;;0.60;;
13067;SDS011;6600;51.362;6.686;2023-07-13T00:59:39;0.67;;;0.67;;
13067;SDS011;6600;51.362;6.686;2023-07-13T01:02:07;0.50;;;0.47;;
13067;SDS011;6600;51.362;6.686;2023-07-13T01:04:32;0.57;;;0.57;;
13067;SDS011;6600;51.362;6.686;2023-07-13T01:06:58;1.17;;;0.70;;
13067;SDS011;6600;51.362;6.686;2023-07-13T01:09:26;0.73;;;0.73;;
13067;SDS011;6600;51.362;6.686;2023-07-13T01:11:52;0.33;;;0.33;;
13067;SDS011;6600;51.362;6.686;2023-07-13T01:14:18;1.87;;;0.80;;
13067;SDS011;6600;51.362;6.686;2023-07-13T01:16:44;1.03;;;0.77;;
13067;SDS011;6600;51.362;6.686;2023-07-13T01:22:12;0.53;;;0.50;;
13067;SDS011;6600;51.362;6.686;2023-07-13T01:24:42;1.07;;;0.87;;
13067;SDS011;6600;51.362;6.686;2023-07-13T01:27:10;1.50;;;0.60;;
13067;SDS011;6600;51.362;6.686;2023-07-13T01:29:38;1.40;;;1.20;;
13067;SDS011;6600;51.362;6.686;2023-07-13T01:32:07;0.87;;;0.57;;
13067;SDS011;6600;51.362;6.686;2023-07-13T01:34:34;2.33;;;0.70;;
13067;SDS011;6600;51.362;6.686;2023-07-13T01:37:00;3.03;;;0.63;;
13067;SDS011;6600;51.362;6.686;2023-07-13T01:39:25;0.67;;;0.60;;
13067;SDS011;6600;51.362;6.686;2023-07-13T01:41:50;0.77;;;0.60;;
13067;SDS011;6600;51.362;6.686;2023-07-13T01:44:16;1.07;;;0.87;;
13067;SDS011;6600;51.362;6.686;2023-07-13T01:46:41;0.70;;;0.70;;
13067;SDS011;6600;51.362;6.686;2023-07-13T01:49:06;0.77;;;0.63;;
13067;SDS011;6600;51.362;6.686;2023-07-13T01:51:31;0.33;;;0.33;;
13067;SDS011;6600;51.362;6.686;2023-07-13T01:53:57;1.03;;;0.50;;
13067;SDS011;6600;51.362;6.686;2023-07-13T01:56:22;0.60;;;0.60;;
13067;SDS011;6600;51.362;6.686;2023-07-13T01:58:48;0.70;;;0.70;;
13067;SDS011;6600;51.362;6.686;2023-07-13T02:01:13;1.77;;;0.70;;
13067;SDS011;6600;51.362;6.686;2023-07-13T02:03:39;1.17;;;0.83;;
13067;SDS011;6600;51.362;6.686;2023-07-13T02:06:04;2.13;;;0.53;;
13067;SDS011;6600;51.362;6.686;2023-07-13T02:08:30;0.63;;;0.60;;
13067;SDS011;6600;51.362;6.686;2023-07-13T02:10:56;1.63;;;0.97;;
13067;SDS011;6600;51.362;6.686;2023-07-13T02:13:22;1.77;;;0.70;;
13067;SDS011;6600;51.362;6.686;2023-07-13T02:15:49;1.23;;;0.43;;
13067;SDS011;6600;51.362;6.686;2023-07-13T02:18:15;0.97;;;0.73;;
13067;SDS011;6600;51.362;6.686;2023-07-13T02:20:42;2.00;;;0.63;;
13067;SDS011;6600;51.362;6.686;2023-07-13T02:23:08;1.17;;;0.57;;
13067;SDS011;6600;51.362;6.686;2023-07-13T02:25:33;1.13;;;0.53;;
13067;SDS011;6600;51.362;6.686;2023-07-13T02:27:59;0.50;;;0.50;;
13067;SDS011;6600;51.362;6.686;2023-07-13T02:30:24;0.60;;;0.60;;
13067;SDS011;6600;51.362;6.686;2023-07-13T02:32:50;2.00;;;1.03;;
13067;SDS011;6600;51.362;6.686;2023-07-13T02:35:15;0.83;;;0.53;;
13067;SDS011;6600;51.362;6.686;2023-07-13T02:37:41;1.53;;;0.60;;
13067;SDS011;6600;51.362;6.686;2023-07-13T02:40:06;0.60;;;0.60;;
13067;SDS011;6600;51.362;6.686;2023-07-13T02:42:33;0.57;;;0.57;;
13067;SDS011;6600;51.362;6.686;2023-07-13T02:44:59;0.43;;;0.43;;
13067;SDS011;6600;51.362;6.686;2023-07-13T02:47:24;0.33;;;0.33;;
13067;SDS011;6600;51.362;6.686;2023-07-13T02:49:50;0.97;;;0.67;;
13067;SDS011;6600;51.362;6.686;2023-07-13T02:52:15;1.33;;;0.50;;
13067;SDS011;6600;51.362;6.686;2023-07-13T02:54:40;1.53;;;0.77;;
13067;SDS011;6600;51.362;6.686;2023-07-13T02:57:06;2.00;;;0.60;;
13067;SDS011;6600;51.362;6.686;2023-07-13T02:59:31;1.90;;;0.60;;
13067;SDS011;6600;51.362;6.686;2023-07-13T03:01:57;0.50;;;0.50;;
13067;SDS011;6600;51.362;6.686;2023-07-13T03:04:22;1.00;;;0.57;;
13067;SDS011;6600;51.362;6.686;2023-07-13T03:06:48;0.60;;;0.60;;
13067;SDS011;6600;51.362;6.686;2023-07-13T03:09:13;1.17;;;0.70;;
13067;SDS011;6600;51.362;6.686;2023-07-13T03:11:39;2.90;;;0.80;;
13067;SDS011;6600;51.362;6.686;2023-07-13T03:14:04;0.67;;;0.47;;
13067;SDS011;6600;51.362;6.686;2023-07-13T03:16:30;1.33;;;0.63;;
13067;SDS011;6600;51.362;6.686;2023-07-13T03:18:55;1.90;;;0.93;;
13067;SDS011;6600;51.362;6.686;2023-07-13T03:21:20;3.23;;;0.60;;
13067;SDS011;6600;51.362;6.686;2023-07-13T03:23:46;0.57;;;0.57;;
13067;SDS011;6600;51.362;6.686;2023-07-13T03:26:16;3.30;;;0.77;;
13067;SDS011;6600;51.362;6.686;2023-07-13T03:28:43;1.30;;;0.70;;
13067;SDS011;6600;51.362;6.686;2023-07-13T03:31:10;2.03;;;0.50;;
13067;SDS011;6600;51.362;6.686;2023-07-13T03:33:40;3.73;;;0.63;;
13067;SDS011;6600;51.362;6.686;2023-07-13T03:36:06;1.03;;;0.80;;
13067;SDS011;6600;51.362;6.686;2023-07-13T03:38:33;0.70;;;0.70;;
13067;SDS011;6600;51.362;6.686;2023-07-13T03:40:59;1.13;;;0.50;;
13067;SDS011;6600;51.362;6.686;2023-07-13T03:43:25;2.37;;;0.60;;
13067;SDS011;6600;51.362;6.686;2023-07-13T03:45:50;1.50;;;0.90;;
13067;SDS011;6600;51.362;6.686;2023-07-13T03:48:15;0.80;;;0.60;;
13067;SDS011;6600;51.362;6.686;2023-07-13T03:50:41;0.30;;;0.30;;
13067;SDS011;6600;51.362;6.686;2023-07-13T03:53:06;0.60;;;0.50;;
13067;SDS011;6600;51.362;6.686;2023-07-13T03:55:32;0.67;;;0.50;;
13067;SDS011;6600;51.362;6.686;2023-07-13T03:57:58;1.37;;;0.60;;
13067;SDS011;6600;51.362;6.686;2023-07-13T04:00:43;0.90;;;0.80;;
13067;SDS011;6600;51.362;6.686;2023-07-13T04:03:08;0.37;;;0.37;;
13067;SDS011;6600;51.362;6.686;2023-07-13T04:05:34;0.50;;;0.50;;
13067;SDS011;6600;51.362;6.686;2023-07-13T04:08:00;1.10;;;0.77;;
13067;SDS011;6600;51.362;6.686;2023-07-13T04:10:25;1.00;;;0.70;;
13067;SDS011;6600;51.362;6.686;2023-07-13T04:12:51;1.47;;;0.80;;
13067;SDS011;6600;51.362;6.686;2023-07-13T04:15:16;2.23;;;0.60;;
13067;SDS011;6600;51.362;6.686;2023-07-13T04:17:41;3.20;;;0.90;;
13067;SDS011;6600;51.362;6.686;2023-07-13T04:20:07;1.30;;;0.70;;
13067;SDS011;6600;51.362;6.686;2023-07-13T04:22:32;1.90;;;0.60;;
13067;SDS011;6600;51.362;6.686;2023-07-13T04:24:58;2.03;;;0.70;;
13067;SDS011;6600;51.362;6.686;2023-07-13T04:27:23;2.33;;;0.70;;
13067;SDS011;6600;51.362;6.686;2023-07-13T04:29:48;0.97;;;0.90;;
13067;SDS011;6600;51.362;6.686;2023-07-13T04:32:13;0.80;;;0.67;;
13067;SDS011;6600;51.362;6.686;2023-07-13T04:34:39;0.83;;;0.50;;
13067;SDS011;6600;51.362;6.686;2023-07-13T04:37:04;0.70;;;0.70;;
13067;SDS011;6600;51.362;6.686;2023-07-13T04:39:30;1.03;;;0.70;;
13067;SDS011;6600;51.362;6.686;2023-07-13T04:41:55;2.73;;;0.80;;
13067;SDS011;6600;51.362;6.686;2023-07-13T04:44:21;2.23;;;0.60;;
13067;SDS011;6600;51.362;6.686;2023-07-13T04:46:46;0.60;;;0.40;;
13067;SDS011;6600;51.362;6.686;2023-07-13T04:49:11;1.63;;;0.70;;
13067;SDS011;6600;51.362;6.686;2023-07-13T04:51:37;2.70;;;0.90;;
13067;SDS011;6600;51.362;6.686;2023-07-13T04:54:02;1.00;;;0.73;;
13067;SDS011;6600;51.362;6.686;2023-07-13T04:56:27;1.00;;;0.80;;
13067;SDS011;6600;51.362;6.686;2023-07-13T04:58:53;1.60;;;0.83;;
13067;SDS011;6600;51.362;6.686;2023-07-13T05:01:18;1.60;;;1.03;;
13067;SDS011;6600;51.362;6.686;2023-07-13T05:03:43;2.00;;;0.70;;
13067;SDS011;6600;51.362;6.686;2023-07-13T05:06:09;1.97;;;0.90;;
13067;SDS011;6600;51.362;6.686;2023-07-13T05:08:38;1.67;;;0.70;;
13067;SDS011;6600;51.362;6.686;2023-07-13T05:11:04;0.60;;;0.60;;
13067;SDS011;6600;51.362;6.686;2023-07-13T05:13:30;1.20;;;1.00;;
13067;SDS011;6600;51.362;6.686;2023-07-13T05:15:57;3.20;;;0.70;;
13067;SDS011;6600;51.362;6.686;2023-07-13T05:18:31;1.30;;;1.20;;
13067;SDS011;6600;51.362;6.686;2023-07-13T05:21:01;0.77;;;0.73;;
13067;SDS011;6600;51.362;6.686;2023-07-13T05:23:32;0.50;;;0.50;;
13067;SDS011;6600;51.362;6.686;2023-07-13T05:25:58;2.57;;;1.13;;
13067;SDS011;6600;51.362;6.686;2023-07-13T05:28:24;0.73;;;0.63;;
13067;SDS011;6600;51.362;6.686;2023-07-13T05:30:50;0.90;;;0.63;;
13067;SDS011;6600;51.362;6.686;2023-07-13T05:33:15;2.23;;;1.10;;
13067;SDS011;6600;51.362;6.686;2023-07-13T05:35:41;1.27;;;0.77;;
13067;SDS011;6600;51.362;6.686;2023-07-13T05:38:06;1.27;;;0.73;;
13067;SDS011;6600;51.362;6.686;2023-07-13T05:40:31;4.73;;;1.00;;
13067;SDS011;6600;51.362;6.686;2023-07-13T05:42:57;0.97;;;0.87;;
13067;SDS011;6600;51.362;6.686;2023-07-13T05:45:22;2.17;;;1.07;;
13067;SDS011;6600;51.362;6.686;2023-07-13T05:47:47;1.33;;;0.87;;
13067;SDS011;6600;51.362;6.686;2023-07-13T05:50:13;4.87;;;0.93;;
13067;SDS011;6600;51.362;6.686;2023-07-13T05:52:38;1.07;;;0.70;;
13067;SDS011;6600;51.362;6.686;2023-07-13T05:55:04;1.20;;;0.83;;
13067;SDS011;6600;51.362;6.686;2023-07-13T05:57:30;0.73;;;0.73;;
13067;SDS011;6600;51.362;6.686;2023-07-13T05:59:55;1.50;;;0.97;;
13067;SDS011;6600;51.362;6.686;2023-07-13T06:02:21;2.73;;;1.00;;
13067;SDS011;6600;51.362;6.686;2023-07-13T06:04:46;1.40;;;0.83;;
13067;SDS011;6600;51.362;6.686;2023-07-13T06:07:11;1.17;;;0.97;;
13067;SDS011;6600;51.362;6.686;2023-07-13T06:09:37;1.30;;;1.00;;
13067;SDS011;6600;51.362;6.686;2023-07-13T06:12:03;4.23;;;1.30;;
13067;SDS011;6600;51.362;6.686;2023-07-13T06:14:29;1.10;;;1.00;;
13067;SDS011;6600;51.362;6.686;2023-07-13T06:16:54;3.53;;;1.20;;
13067;SDS011;6600;51.362;6.686;2023-07-13T06:19:20;1.63;;;0.80;;
13067;SDS011;6600;51.362;6.686;2023-07-13T06:21:45;3.80;;;0.90;;
13067;SDS011;6600;51.362;6.686;2023-07-13T06:24:10;1.33;;;1.23;;
13067;SDS011;6600;51.362;6.686;2023-07-13T06:26:36;1.10;;;1.00;;
13067;SDS011;6600;51.362;6.686;2023-07-13T06:29:01;2.60;;;1.20;;
13067;SDS011;6600;51.362;6.686;2023-07-13T06:31:26;1.03;;;1.03;;
13067;SDS011;6600;51.362;6.686;2023-07-13T06:33:52;1.63;;;0.90;;
13067;SDS011;6600;51.362;6.686;2023-07-13T06:36:17;1.60;;;1.00;;
13067;SDS011;6600;51.362;6.686;2023-07-13T06:38:42;2.47;;;1.17;;
13067;SDS011;6600;51.362;6.686;2023-07-13T06:41:08;1.23;;;1.10;;
13067;SDS011;6600;51.362;6.686;2023-07-13T06:43:33;2.67;;;1.40;;
13067;SDS011;6600;51.362;6.686;2023-07-13T06:45:59;2.70;;;1.00;;
13067;SDS011;6600;51.362;6.686;2023-07-13T06:48:24;4.60;;;1.30;;
13067;SDS011;6600;51.362;6.686;2023-07-13T06:50:50;1.90;;;1.30;;
13067;SDS011;6600;51.362;6.686;2023-07-13T06:53:16;1.20;;;1.10;;
13067;SDS011;6600;51.362;6.686;2023-07-13T06:55:43;5.17;;;1.33;;
13067;SDS011;6600;51.362;6.686;2023-07-13T06:58:10;3.27;;;1.57;;
13067;SDS011;6600;51.362;6.686;2023-07-13T07:00:35;1.93;;;1.40;;
13067;SDS011;6600;51.362;6.686;2023-07-13T07:03:00;3.93;;;1.23;;
13067;SDS011;6600;51.362;6.686;2023-07-13T07:05:26;4.20;;;1.30;;
13067;SDS011;6600;51.362;6.686;2023-07-13T07:07:52;3.27;;;1.10;;
13067;SDS011;6600;51.362;6.686;2023-07-13T07:10:19;3.80;;;1.20;;
13067;SDS011;6600;51.362;6.686;2023-07-13T07:12:45;5.37;;;1.53;;
13067;SDS011;6600;51.362;6.686;2023-07-13T07:15:10;2.17;;;1.20;;
13067;SDS011;6600;51.362;6.686;2023-07-13T07:17:36;1.17;;;1.13;;
13067;SDS011;6600;51.362;6.686;2023-07-13T07:20:02;3.87;;;1.47;;
13067;SDS011;6600;51.362;6.686;2023-07-13T07:22:28;4.53;;;1.40;;
13067;SDS011;6600;51.362;6.686;2023-07-13T07:24:55;2.30;;;1.23;;
13067;SDS011;6600;51.362;6.686;2023-07-13T07:27:21;1.70;;;1.50;;
13067;SDS011;6600;51.362;6.686;2023-07-13T07:29:46;1.50;;;1.40;;
13067;SDS011;6600;51.362;6.686;2023-07-13T07:32:12;1.40;;;1.30;;
13067;SDS011;6600;51.362;6.686;2023-07-13T07:34:37;5.00;;;1.27;;
13067;SDS011;6600;51.362;6.686;2023-07-13T07:37:03;2.70;;;1.10;;
13067;SDS011;6600;51.362;6.686;2023-07-13T07:39:29;1.83;;;1.27;;
13067;SDS011;6600;51.362;6.686;2023-07-13T07:41:55;1.73;;;1.40;;
13067;SDS011;6600;51.362;6.686;2023-07-13T07:44:20;1.27;;;1.17;;
13067;SDS011;6600;51.362;6.686;2023-07-13T07:46:45;1.37;;;1.10;;
13067;SDS011;6600;51.362;6.686;2023-07-13T07:49:11;4.00;;;1.33;;
13067;SDS011;6600;51.362;6.686;2023-07-13T07:51:36;3.43;;;1.40;;
13067;SDS011;6600;51.362;6.686;2023-07-13T07:54:02;1.93;;;1.40;;
13067;SDS011;6600;51.362;6.686;2023-07-13T07:56:29;1.63;;;1.30;;
13067;SDS011;6600;51.362;6.686;2023-07-13T07:58:54;3.33;;;1.40;;
13067;SDS011;6600;51.362;6.686;2023-07-13T08:01:20;1.83;;;1.30;;
13067;SDS011;6600;51.362;6.686;2023-07-13T08:03:46;1.80;;;1.10;;
13067;SDS011;6600;51.362;6.686;2023-07-13T08:06:11;1.73;;;1.50;;
13067;SDS011;6600;51.362;6.686;2023-07-13T08:08:36;2.47;;;1.67;;
13067;SDS011;6600;51.362;6.686;2023-07-13T08:11:03;3.70;;;1.27;;
13067;SDS011;6600;51.362;6.686;2023-07-13T08:13:29;1.40;;;1.20;;
13067;SDS011;6600;51.362;6.686;2023-07-13T08:15:55;1.30;;;1.10;;
13067;SDS011;6600;51.362;6.686;2023-07-13T08:18:20;3.63;;;1.10;;
13067;SDS011;6600;51.362;6.686;2023-07-13T08:20:45;3.50;;;1.20;;
13067;SDS011;6600;51.362;6.686;2023-07-13T08:23:11;1.27;;;1.17;;
13067;SDS011;6600;51.362;6.686;2023-07-13T08:25:36;3.17;;;1.27;;
13067;SDS011;6600;51.362;6.686;2023-07-13T08:28:02;2.67;;;0.97;;
13067;SDS011;6600;51.362;6.686;2023-07-13T08:30:28;1.27;;;1.17;;
13067;SDS011;6600;51.362;6.686;2023-07-13T08:32:54;1.87;;;1.13;;
13067;SDS011;6600;51.362;6.686;2023-07-13T08:35:19;1.30;;;1.20;;
13067;SDS011;6600;51.362;6.686;2023-07-13T08:37:44;1.13;;;0.93;;
13067;SDS011;6600;51.362;6.686;2023-07-13T08:40:10;3.40;;;1.10;;
13067;SDS011;6600;51.362;6.686;2023-07-13T08:42:46;1.27;;;1.17;;
13067;SDS011;6600;51.362;6.686;2023-07-13T08:45:24;2.20;;;1.57;;
13067;SDS011;6600;51.362;6.686;2023-07-13T08:48:12;1.80;;;1.03;;
13067;SDS011;6600;51.362;6.686;2023-07-13T08:51:04;3.77;;;1.10;;
13067;SDS011;6600;51.362;6.686;2023-07-13T08:53:57;1.20;;;0.90;;
13067;SDS011;6600;51.362;6.686;2023-07-13T08:56:27;1.40;;;1.30;;
13067;SDS011;6600;51.362;6.686;2023-07-13T08:59:00;2.17;;;1.23;;
13067;SDS011;6600;51.362;6.686;2023-07-13T09:04:41;2.20;;;1.00;;
13067;SDS011;6600;51.362;6.686;2023-07-13T09:15:36;2.37;;;1.30;;
13067;SDS011;6600;51.362;6.686;2023-07-13T09:20:42;2.83;;;1.30;;
13067;SDS011;6600;51.362;6.686;2023-07-13T09:23:20;3.07;;;1.20;;
13067;SDS011;6600;51.362;6.686;2023-07-13T09:25:50;3.10;;;1.40;;
13067;SDS011;6600;51.362;6.686;2023-07-13T09:28:28;4.33;;;1.17;;
13067;SDS011;6600;51.362;6.686;2023-07-13T09:31:07;3.17;;;1.03;;
13067;SDS011;6600;51.362;6.686;2023-07-13T09:33:41;2.17;;;1.10;;
13067;SDS011;6600;51.362;6.686;2023-07-13T09:46:38;2.67;;;1.10;;
13067;SDS011;6600;51.362;6.686;2023-07-13T09:49:09;1.63;;;1.03;;
13067;SDS011;6600;51.362;6.686;2023-07-13T09:51:36;1.40;;;1.30;;
13067;SDS011;6600;51.362;6.686;2023-07-13T09:54:05;3.80;;;1.00;;
13067;SDS011;6600;51.362;6.686;2023-07-13T09:56:41;2.97;;;1.27;;
13067;SDS011;6600;51.362;6.686;2023-07-13T09:59:17;1.60;;;1.03;;
13067;SDS011;6600;51.362;6.686;2023-07-13T10:01:44;1.10;;;1.00;;
13067;SDS011;6600;51.362;6.686;2023-07-13T10:04:10;2.93;;;1.00;;
13067;SDS011;6600;51.362;6.686;2023-07-13T10:06:38;3.50;;;0.60;;
13067;SDS011;6600;51.362;6.686;2023-07-13T10:09:06;1.53;;;0.90;;
13067;SDS011;6600;51.362;6.686;2023-07-13T10:11:34;1.43;;;1.33;;
13067;SDS011;6600;51.362;6.686;2023-07-13T10:14:22;3.23;;;1.60;;
13067;SDS011;6600;51.362;6.686;2023-07-13T10:16:58;1.33;;;1.00;;
13067;SDS011;6600;51.362;6.686;2023-07-13T10:19:27;0.93;;;0.93;;
13067;SDS011;6600;51.362;6.686;2023-07-13T10:25:20;1.40;;;0.90;;
13067;SDS011;6600;51.362;6.686;2023-07-13T10:27:47;2.30;;;1.13;;
13067;SDS011;6600;51.362;6.686;2023-07-13T10:32:42;1.30;;;1.20;;
13067;SDS011;6600;51.362;6.686;2023-07-13T10:35:09;2.70;;;1.40;;
13067;SDS011;6600;51.362;6.686;2023-07-13T10:40:31;2.90;;;1.27;;
13067;SDS011;6600;51.362;6.686;2023-07-13T10:43:02;3.03;;;1.37;;
13067;SDS011;6600;51.362;6.686;2023-07-13T10:45:34;1.30;;;1.20;;
13067;SDS011;6600;51.362;6.686;2023-07-13T10:48:01;2.27;;;1.23;;
13067;SDS011;6600;51.362;6.686;2023-07-13T10:50:27;0.90;;;0.90;;
13067;SDS011;6600;51.362;6.686;2023-07-13T10:52:56;1.20;;;1.10;;
13067;SDS011;6600;51.362;6.686;2023-07-13T11:00:47;1.03;;;0.93;;
13067;SDS011;6600;51.362;6.686;2023-07-13T11:03:28;2.63;;;1.10;;
13067;SDS011;6600;51.362;6.686;2023-07-13T11:18:41;1.10;;;0.80;;
13067;SDS011;6600;51.362;6.686;2023-07-13T11:21:20;1.37;;;1.10;;
13067;SDS011;6600;51.362;6.686;2023-07-13T11:23:54;1.63;;;1.10;;
13067;SDS011;6600;51.362;6.686;2023-07-13T11:31:42;2.40;;;0.90;;
13067;SDS011;6600;51.362;6.686;2023-07-13T11:34:13;1.53;;;1.20;;
13067;SDS011;6600;51.362;6.686;2023-07-13T11:36:42;1.83;;;1.07;;
13067;SDS011;6600;51.362;6.686;2023-07-13T11:39:19;1.27;;;1.13;;
13067;SDS011;6600;51.362;6.686;2023-07-13T11:44:17;1.30;;;1.20;;
13067;SDS011;6600;51.362;6.686;2023-07-13T11:46:48;0.90;;;0.90;;
13067;SDS011;6600;51.362;6.686;2023-07-13T11:49:16;1.97;;;1.00;;
13067;SDS011;6600;51.362;6.686;2023-07-13T11:51:46;2.10;;;0.93;;
13067;SDS011;6600;51.362;6.686;2023-07-13T11:54:23;2.40;;;1.07;;
13067;SDS011;6600;51.362;6.686;2023-07-13T11:56:55;1.07;;;0.80;;
13067;SDS011;6600;51.362;6.686;2023-07-13T11:59:25;1.73;;;0.83;;
13067;SDS011;6600;51.362;6.686;2023-07-13T12:01:52;0.93;;;0.90;;
13067;SDS011;6600;51.362;6.686;2023-07-13T12:04:20;4.73;;;0.93;;
13067;SDS011;6600;51.362;6.686;2023-07-13T12:06:58;1.43;;;0.87;;
13067;SDS011;6600;51.362;6.686;2023-07-13T12:09:30;2.47;;;0.70;;
13067;SDS011;6600;51.362;6.686;2023-07-13T12:11:56;0.80;;;0.70;;
13067;SDS011;6600;51.362;6.686;2023-07-13T12:14:25;0.87;;;0.87;;
13067;SDS011;6600;51.362;6.686;2023-07-13T12:16:51;1.83;;;0.93;;
13067;SDS011;6600;51.362;6.686;2023-07-13T12:19:22;1.00;;;0.93;;
13067;SDS011;6600;51.362;6.686;2023-07-13T12:21:47;1.13;;;0.80;;
13067;SDS011;6600;51.362;6.686;2023-07-13T12:24:17;1.63;;;0.80;;
13067;SDS011;6600;51.362;6.686;2023-07-13T12:26:50;0.90;;;0.90;;
13067;SDS011;6600;51.362;6.686;2023-07-13T12:29:20;0.80;;;0.80;;
13067;SDS011;6600;51.362;6.686;2023-07-13T12:31:47;3.03;;;1.20;;
13067;SDS011;6600;51.362;6.686;2023-07-13T12:34:24;1.10;;;0.80;;
13067;SDS011;6600;51.362;6.686;2023-07-13T12:36:52;0.63;;;0.63;;
13067;SDS011;6600;51.362;6.686;2023-07-13T12:42:19;0.90;;;0.90;;
13067;SDS011;6600;51.362;6.686;2023-07-13T12:44:54;1.77;;;0.97;;
13067;SDS011;6600;51.362;6.686;2023-07-13T12:47:42;0.70;;;0.70;;
13067;SDS011;6600;51.362;6.686;2023-07-13T12:50:15;1.47;;;0.77;;
13067;SDS011;6600;51.362;6.686;2023-07-13T12:52:43;2.83;;;0.90;;
13067;SDS011;6600;51.362;6.686;2023-07-13T12:55:17;1.43;;;0.80;;
13067;SDS011;6600;51.362;6.686;2023-07-13T12:57:47;0.97;;;0.87;;
13067;SDS011;6600;51.362;6.686;2023-07-13T13:00:30;0.93;;;0.90;;
13067;SDS011;6600;51.362;6.686;2023-07-13T13:03:04;0.80;;;0.80;;
13067;SDS011;6600;51.362;6.686;2023-07-13T13:05:32;2.63;;;0.80;;
13067;SDS011;6600;51.362;6.686;2023-07-13T13:07:58;1.57;;;0.90;;
13067;SDS011;6600;51.362;6.686;2023-07-13T13:10:24;2.33;;;0.73;;
13067;SDS011;6600;51.362;6.686;2023-07-13T13:12:50;1.07;;;0.80;;
13067;SDS011;6600;51.362;6.686;2023-07-13T13:15:15;0.50;;;0.50;;
13067;SDS011;6600;51.362;6.686;2023-07-13T13:17:41;1.40;;;0.77;;
13067;SDS011;6600;51.362;6.686;2023-07-13T13:20:17;0.83;;;0.80;;
13067;SDS011;6600;51.362;6.686;2023-07-13T13:22:45;1.20;;;1.10;;
13067;SDS011;6600;51.362;6.686;2023-07-13T13:25:11;1.97;;;1.20;;
13067;SDS011;6600;51.362;6.686;2023-07-13T13:27:38;1.63;;;1.10;;
13067;SDS011;6600;51.362;6.686;2023-07-13T13:30:10;0.90;;;0.80;;
13067;SDS011;6600;51.362;6.686;2023-07-13T13:32:38;0.97;;;0.63;;
13067;SDS011;6600;51.362;6.686;2023-07-13T13:35:04;0.73;;;0.73;;
13067;SDS011;6600;51.362;6.686;2023-07-13T13:37:31;0.70;;;0.70;;
13067;SDS011;6600;51.362;6.686;2023-07-13T13:39:57;1.60;;;0.70;;
13067;SDS011;6600;51.362;6.686;2023-07-13T13:42:22;0.63;;;0.63;;
13067;SDS011;6600;51.362;6.686;2023-07-13T13:44:49;0.70;;;0.70;;
13067;SDS011;6600;51.362;6.686;2023-07-13T13:47:26;0.87;;;0.77;;
13067;SDS011;6600;51.362;6.686;2023-07-13T13:49:55;1.13;;;0.80;;
13067;SDS011;6600;51.362;6.686;2023-07-13T13:52:21;0.60;;;0.60;;
13067;SDS011;6600;51.362;6.686;2023-07-13T13:54:46;1.90;;;0.80;;
13067;SDS011;6600;51.362;6.686;2023-07-13T13:57:11;0.60;;;0.60;;
13067;SDS011;6600;51.362;6.686;2023-07-13T13:59:37;1.10;;;0.80;;
13067;SDS011;6600;51.362;6.686;2023-07-13T14:02:09;0.93;;;0.73;;
13067;SDS011;6600;51.362;6.686;2023-07-13T14:04:47;2.40;;;0.70;;
13067;SDS011;6600;51.362;6.686;2023-07-13T14:07:14;0.60;;;0.60;;
13067;SDS011;6600;51.362;6.686;2023-07-13T14:09:39;1.77;;;0.60;;
13067;SDS011;6600;51.362;6.686;2023-07-13T14:12:05;0.70;;;0.70;;
13067;SDS011;6600;51.362;6.686;2023-07-13T14:14:32;2.83;;;0.93;;
13067;SDS011;6600;51.362;6.686;2023-07-13T14:16:58;1.83;;;1.00;;
13067;SDS011;6600;51.362;6.686;2023-07-13T14:19:23;1.87;;;1.10;;
13067;SDS011;6600;51.362;6.686;2023-07-13T14:21:49;1.27;;;1.07;;
13067;SDS011;6600;51.362;6.686;2023-07-13T14:24:14;1.07;;;0.67;;
13067;SDS011;6600;51.362;6.686;2023-07-13T14:26:41;0.87;;;0.87;;
13067;SDS011;6600;51.362;6.686;2023-07-13T14:29:14;0.60;;;0.60;;
13067;SDS011;6600;51.362;6.686;2023-07-13T14:31:42;0.90;;;0.90;;
13067;SDS011;6600;51.362;6.686;2023-07-13T14:34:12;0.97;;;0.93;;
13067;SDS011;6600;51.362;6.686;2023-07-13T14:36:43;1.70;;;0.80;;
13067;SDS011;6600;51.362;6.686;2023-07-13T14:41:50;1.50;;;0.60;;
13067;SDS011;6600;51.362;6.686;2023-07-13T14:44:17;0.80;;;0.80;;
13067;SDS011;6600;51.362;6.686;2023-07-13T14:46:46;1.10;;;0.83;;
13067;SDS011;6600;51.362;6.686;2023-07-13T14:49:18;1.90;;;1.17;;
13067;SDS011;6600;51.362;6.686;2023-07-13T14:51:47;0.80;;;0.80;;
13067;SDS011;6600;51.362;6.686;2023-07-13T14:54:12;1.03;;;0.93;;
13067;SDS011;6600;51.362;6.686;2023-07-13T14:56:37;0.80;;;0.80;;
13067;SDS011;6600;51.362;6.686;2023-07-13T14:59:03;1.33;;;0.83;;
13067;SDS011;6600;51.362;6.686;2023-07-13T15:01:29;0.90;;;0.90;;
13067;SDS011;6600;51.362;6.686;2023-07-13T15:03:56;1.00;;;0.90;;
13067;SDS011;6600;51.362;6.686;2023-07-13T15:06:23;2.53;;;0.70;;
13067;SDS011;6600;51.362;6.686;2023-07-13T15:08:48;0.67;;;0.67;;
13067;SDS011;6600;51.362;6.686;2023-07-13T15:11:14;1.80;;;1.00;;
13067;SDS011;6600;51.362;6.686;2023-07-13T15:13:40;1.37;;;1.00;;
13067;SDS011;6600;51.362;6.686;2023-07-13T15:16:40;1.23;;;0.87;;
13067;SDS011;6600;51.362;6.686;2023-07-13T15:18:59;1.03;;;0.70;;
13067;SDS011;6600;51.362;6.686;2023-07-13T15:21:24;0.70;;;0.70;;
13067;SDS011;6600;51.362;6.686;2023-07-13T15:23:50;0.67;;;0.67;;
13067;SDS011;6600;51.362;6.686;2023-07-13T15:26:16;0.80;;;0.80;;
13067;SDS011;6600;51.362;6.686;2023-07-13T15:28:44;0.87;;;0.63;;
13067;SDS011;6600;51.362;6.686;2023-07-13T15:31:17;1.37;;;0.67;;
13067;SDS011;6600;51.362;6.686;2023-07-13T15:33:44;1.10;;;0.80;;
13067;SDS011;6600;51.362;6.686;2023-07-13T15:36:09;1.23;;;1.13;;
13067;SDS011;6600;51.362;6.686;2023-07-13T15:38:35;1.33;;;0.63;;
13067;SDS011;6600;51.362;6.686;2023-07-13T15:41:10;1.20;;;1.03;;
13067;SDS011;6600;51.362;6.686;2023-07-13T15:43:41;1.70;;;0.90;;
13067;SDS011;6600;51.362;6.686;2023-07-13T15:46:06;1.07;;;1.00;;
13067;SDS011;6600;51.362;6.686;2023-07-13T15:48:32;0.80;;;0.80;;
13067;SDS011;6600;51.362;6.686;2023-07-13T15:51:00;0.97;;;0.93;;
13067;SDS011;6600;51.362;6.686;2023-07-13T15:53:31;1.03;;;0.93;;
13067;SDS011;6600;51.362;6.686;2023-07-13T15:55:58;2.03;;;0.87;;
13067;SDS011;6600;51.362;6.686;2023-07-13T15:58:25;1.50;;;1.17;;
13067;SDS011;6600;51.362;6.686;2023-07-13T16:00:53;1.30;;;1.00;;
13067;SDS011;6600;51.362;6.686;2023-07-13T16:03:22;3.07;;;1.00;;
13067;SDS011;6600;51.362;6.686;2023-07-13T16:05:47;1.83;;;1.20;;
13067;SDS011;6600;51.362;6.686;2023-07-13T16:08:36;1.03;;;0.97;;
13067;SDS011;6600;51.362;6.686;2023-07-13T16:11:05;1.57;;;1.20;;